createdAt,value
2018-12-28T00:00:43.211Z,7.42
2018-12-28T00:01:43.226Z,7.39
2018-12-28T00:02:43.250Z,7.45
2018-12-28T00:03:57.916Z,7.39
2018-12-28T00:04:43.278Z,7.4
2018-12-28T00:05:43.292Z,7.34
2018-12-28T00:06:43.307Z,7.45
2018-12-28T00:07:43.316Z,7.35
2018-12-28T00:08:43.331Z,7.52
2018-12-28T00:09:43.359Z,7.45
2018-12-28T00:10:43.365Z,7.48
2018-12-28T00:11:43.382Z,7.5
2018-12-28T00:12:43.394Z,7.4
2018-12-28T00:14:43.425Z,7.5
2018-12-28T00:15:43.444Z,7.43
2018-12-28T00:16:43.462Z,7.52
2018-12-28T00:17:43.480Z,7.45
2018-12-28T00:18:43.491Z,7.48
2018-12-28T00:19:58.170Z,7.46
2018-12-28T00:20:43.525Z,7.43
2018-12-28T00:21:43.538Z,7.48
2018-12-28T00:22:43.555Z,7.43
2018-12-28T00:23:43.574Z,7.5
2018-12-28T00:24:43.588Z,7.49
2018-12-28T00:25:43.605Z,7.5
2018-12-28T00:26:43.621Z,7.42
2018-12-28T00:27:43.634Z,7.49
2018-12-28T00:28:43.658Z,7.48
2018-12-28T00:29:43.670Z,7.5
2018-12-28T00:30:43.687Z,7.46
2018-12-28T00:31:43.800Z,7.53
2018-12-28T00:32:43.719Z,7.57
2018-12-28T00:33:43.733Z,7.55
2018-12-28T00:34:58.413Z,7.48
2018-12-28T00:35:43.778Z,7.49
2018-12-28T00:36:43.782Z,7.48
2018-12-28T00:37:43.796Z,7.42
2018-12-28T00:38:43.812Z,7.49
2018-12-28T00:39:43.835Z,7.5
2018-12-28T00:40:43.847Z,7.4
2018-12-28T00:41:43.862Z,7.45
2018-12-28T00:42:43.981Z,7.31
2018-12-28T00:43:43.909Z,7.35
2018-12-28T00:44:43.913Z,7.32
2018-12-28T00:45:43.925Z,7.35
2018-12-28T00:46:58.609Z,7.42
2018-12-28T00:47:43.956Z,7.45
2018-12-28T00:48:43.974Z,7.4
2018-12-28T00:49:43.996Z,7.4
2018-12-28T00:50:44.010Z,7.45
2018-12-28T00:51:44.022Z,7.35
2018-12-28T00:53:44.054Z,7.49
2018-12-28T00:54:44.071Z,7.42
2018-12-28T00:55:44.087Z,7.48
2018-12-28T00:56:44.102Z,7.39
2018-12-28T00:57:44.158Z,7.35
2018-12-28T00:58:44.134Z,7.39
2018-12-28T00:59:44.152Z,7.35
2018-12-28T01:00:44.171Z,7.39
2018-12-28T01:01:44.186Z,7.42
2018-12-28T01:02:44.198Z,7.53
2018-12-28T01:03:44.215Z,7.53
2018-12-28T01:04:44.231Z,7.37
2018-12-28T01:05:44.250Z,7.4
2018-12-28T01:06:58.927Z,7.45
2018-12-28T01:07:44.281Z,7.27
2018-12-28T01:08:44.294Z,7.32
2018-12-28T01:09:44.325Z,7.4
2018-12-28T01:10:44.080Z,7.4
2018-12-28T01:11:44.343Z,7.45
2018-12-28T01:12:44.360Z,7.43
2018-12-28T01:13:44.384Z,7.4
2018-12-28T01:14:44.491Z,7.43
2018-12-28T01:15:44.408Z,7.43
2018-12-28T01:18:44.462Z,7.5
2018-12-28T01:19:44.574Z,7.4
2018-12-28T01:20:59.150Z,7.4
2018-12-28T01:21:44.505Z,7.42
2018-12-28T01:22:59.185Z,7.42
2018-12-28T01:23:44.536Z,7.39
2018-12-28T01:24:44.550Z,7.46
2018-12-28T01:25:44.567Z,7.4
2018-12-28T01:26:44.590Z,7.42
2018-12-28T01:27:44.600Z,7.45
2018-12-28T01:28:44.615Z,7.45
2018-12-28T01:29:44.633Z,7.42
2018-12-28T01:30:44.649Z,7.39
2018-12-28T01:31:44.662Z,7.4
2018-12-28T01:34:44.710Z,7.4
2018-12-28T01:35:59.391Z,7.39
2018-12-28T01:36:44.743Z,7.34
2018-12-28T01:37:44.759Z,7.39
2018-12-28T01:38:59.439Z,7.35
2018-12-28T01:39:44.791Z,7.28
2018-12-28T01:40:44.811Z,7.35
2018-12-28T01:41:44.824Z,7.35
2018-12-28T01:42:44.840Z,7.37
2018-12-28T01:43:44.859Z,7.39
2018-12-28T01:44:44.870Z,7.46
2018-12-28T01:46:44.913Z,7.42
2018-12-28T01:47:44.925Z,7.43
2018-12-28T01:48:44.936Z,7.46
2018-12-28T01:49:44.959Z,7.4
2018-12-28T01:50:59.631Z,7.37
2018-12-28T01:51:44.984Z,7.39
2018-12-28T01:52:44.752Z,7.37
2018-12-28T01:53:45.016Z,7.4
2018-12-28T01:54:59.696Z,7.5
2018-12-28T01:55:45.051Z,7.45
2018-12-28T01:56:45.067Z,7.39
2018-12-28T01:57:45.080Z,7.45
2018-12-28T01:58:45.095Z,7.4
2018-12-28T01:59:45.112Z,7.48
2018-12-28T02:00:45.128Z,7.49
2018-12-28T02:01:45.149Z,7.43
2018-12-28T02:03:59.844Z,7.4
2018-12-28T02:04:45.195Z,7.42
2018-12-28T02:05:45.210Z,7.43
2018-12-28T02:06:45.226Z,7.5
2018-12-28T02:07:45.258Z,7.45
2018-12-28T02:08:45.256Z,7.45
2018-12-28T02:09:59.936Z,7.43
2018-12-28T02:10:45.288Z,7.42
2018-12-28T02:11:45.304Z,7.45
2018-12-28T02:12:45.326Z,7.39
2018-12-28T02:13:45.337Z,7.42
2018-12-28T02:14:45.355Z,7.55
2018-12-28T02:16:45.387Z,7.45
2018-12-28T02:17:45.403Z,7.42
2018-12-28T02:18:45.422Z,7.39
2018-12-28T02:19:45.432Z,7.45
2018-12-28T02:20:45.450Z,7.4
2018-12-28T02:22:00.130Z,7.37
2018-12-28T02:23:00.144Z,7.45
2018-12-28T02:23:45.500Z,7.48
2018-12-28T02:24:45.513Z,7.46
2018-12-28T02:25:45.530Z,7.5
2018-12-28T02:26:45.550Z,7.48
2018-12-28T02:27:45.563Z,7.52
2018-12-28T02:28:45.581Z,7.49
2018-12-28T02:29:45.596Z,7.5
2018-12-28T02:30:45.627Z,7.43
2018-12-28T02:31:45.636Z,7.49
2018-12-28T02:33:45.668Z,7.5
2018-12-28T02:35:45.762Z,7.53
2018-12-28T02:36:45.715Z,7.49
2018-12-28T02:37:45.726Z,7.48
2018-12-28T02:39:00.400Z,7.52
2018-12-28T02:39:45.763Z,7.5
2018-12-28T02:40:45.783Z,7.46
2018-12-28T02:42:00.449Z,7.52
2018-12-28T02:42:45.802Z,7.53
2018-12-28T02:43:45.842Z,7.55
2018-12-28T02:44:45.849Z,7.55
2018-12-28T02:45:45.927Z,7.57
2018-12-28T02:46:45.868Z,7.49
2018-12-28T02:47:45.882Z,7.58
2018-12-28T02:48:45.896Z,7.58
2018-12-28T02:49:45.916Z,7.5
2018-12-28T02:50:45.934Z,7.57
2018-12-28T02:51:45.951Z,7.52
2018-12-28T02:52:45.966Z,7.55
2018-12-28T02:54:00.642Z,7.58
2018-12-28T02:54:45.996Z,7.52
2018-12-28T02:55:46.010Z,7.58
2018-12-28T02:56:46.027Z,7.53
2018-12-28T02:58:00.705Z,7.57
2018-12-28T02:58:46.059Z,7.61
2018-12-28T02:59:46.079Z,7.68
2018-12-28T03:00:46.091Z,7.61
2018-12-28T03:01:46.114Z,7.64
2018-12-28T03:02:46.122Z,7.55
2018-12-28T03:03:46.147Z,7.46
2018-12-28T03:04:46.156Z,7.45
2018-12-28T03:05:46.175Z,7.57
2018-12-28T03:06:46.188Z,7.45
2018-12-28T03:07:46.201Z,7.5
2018-12-28T03:08:46.222Z,7.46
2018-12-28T03:09:49.499Z,7.52
2018-12-28T03:10:46.256Z,7.5
2018-12-28T03:11:46.266Z,7.49
2018-12-28T03:12:46.323Z,7.55
2018-12-28T03:14:00.964Z,7.48
2018-12-28T03:14:46.319Z,7.57
2018-12-28T03:15:46.346Z,7.68
2018-12-28T03:17:01.021Z,7.53
2018-12-28T03:18:46.384Z,7.55
2018-12-28T03:19:46.398Z,7.6
2018-12-28T03:20:46.429Z,7.55
2018-12-28T03:21:46.439Z,7.75
2018-12-28T03:22:46.449Z,7.55
2018-12-28T03:23:46.463Z,7.6
2018-12-28T03:25:46.555Z,7.61
2018-12-28T03:27:01.279Z,7.57
2018-12-28T03:27:46.530Z,7.58
2018-12-28T03:28:46.543Z,7.67
2018-12-28T03:30:01.222Z,7.71
2018-12-28T03:30:46.601Z,7.67
2018-12-28T03:32:46.613Z,7.57
2018-12-28T03:33:46.623Z,7.63
2018-12-28T03:34:46.755Z,7.61
2018-12-28T03:35:46.655Z,7.71
2018-12-28T03:36:46.675Z,7.64
2018-12-28T03:38:46.706Z,7.63
2018-12-28T03:39:54.718Z,7.58
2018-12-28T03:40:46.736Z,7.67
2018-12-28T03:41:46.756Z,7.63
2018-12-28T03:42:46.774Z,7.57
2018-12-28T03:43:46.787Z,7.61
2018-12-28T03:45:01.476Z,7.6
2018-12-28T03:45:46.824Z,7.69
2018-12-28T03:46:46.835Z,7.6
2018-12-28T03:47:46.852Z,7.63
2018-12-28T03:48:46.877Z,7.53
2018-12-28T03:49:46.891Z,7.58
2018-12-28T03:50:46.898Z,7.68
2018-12-28T03:51:46.913Z,7.52
2018-12-28T03:52:46.936Z,7.55
2018-12-28T03:53:46.949Z,7.48
2018-12-28T03:54:46.967Z,7.49
2018-12-28T03:55:46.987Z,7.6
2018-12-28T03:57:01.667Z,7.58
2018-12-28T03:58:01.676Z,7.68
2018-12-28T03:58:47.147Z,7.63
2018-12-28T03:59:47.045Z,7.46
2018-12-28T04:00:47.062Z,7.49
2018-12-28T04:01:47.079Z,7.48
2018-12-28T04:02:47.094Z,7.55
2018-12-28T04:03:47.109Z,7.53
2018-12-28T04:04:47.127Z,7.68
2018-12-28T04:05:47.144Z,7.61
2018-12-28T04:07:01.828Z,7.6
2018-12-28T04:08:47.188Z,7.64
2018-12-28T04:09:47.206Z,7.52
2018-12-28T04:11:47.238Z,7.52
2018-12-28T04:12:47.297Z,7.58
2018-12-28T04:13:47.311Z,7.6
2018-12-28T04:14:47.299Z,7.5
2018-12-28T04:15:47.309Z,7.55
2018-12-28T04:17:01.986Z,7.61
2018-12-28T04:17:47.340Z,7.52
2018-12-28T04:18:47.372Z,7.52
2018-12-28T04:19:47.369Z,7.52
2018-12-28T04:20:47.385Z,7.64
2018-12-28T04:21:47.402Z,7.63
2018-12-28T04:23:02.087Z,7.58
2018-12-28T04:23:47.430Z,7.64
2018-12-28T04:24:47.449Z,7.61
2018-12-28T04:26:47.485Z,7.5
2018-12-28T04:27:47.497Z,7.53
2018-12-28T04:28:47.524Z,7.6
2018-12-28T04:30:02.199Z,7.61
2018-12-28T04:30:47.560Z,7.63
2018-12-28T04:31:47.563Z,7.64
2018-12-28T04:33:02.242Z,7.53
2018-12-28T04:33:47.696Z,7.58
2018-12-28T04:34:47.609Z,7.49
2018-12-28T04:35:47.631Z,7.57
2018-12-28T04:36:47.644Z,7.57
2018-12-28T04:37:47.659Z,7.63
2018-12-28T04:38:47.681Z,7.69
2018-12-28T04:40:47.707Z,7.68
2018-12-28T04:41:47.725Z,7.61
2018-12-28T04:42:47.738Z,7.6
2018-12-28T04:43:47.758Z,7.52
2018-12-28T04:45:02.436Z,7.58
2018-12-28T04:46:02.453Z,7.55
2018-12-28T04:46:47.806Z,7.6
2018-12-28T04:47:47.819Z,7.5
2018-12-28T04:49:02.504Z,7.48
2018-12-28T04:49:47.852Z,7.48
2018-12-28T04:50:47.884Z,7.61
2018-12-28T04:51:47.986Z,7.58
2018-12-28T04:52:47.904Z,7.53
2018-12-28T04:53:47.918Z,7.46
2018-12-28T04:55:02.604Z,7.49
2018-12-28T04:55:48.050Z,7.5
2018-12-28T04:56:47.977Z,7.55
2018-12-28T04:57:47.985Z,7.53
2018-12-28T04:58:48.004Z,7.53
2018-12-28T04:59:48.017Z,7.55
2018-12-28T05:01:02.696Z,7.58
2018-12-28T05:01:48.049Z,7.63
2018-12-28T05:02:48.063Z,7.61
2018-12-28T05:03:48.082Z,7.63
2018-12-28T05:05:02.757Z,7.63
2018-12-28T05:05:48.123Z,7.64
2018-12-28T05:06:48.130Z,7.63
2018-12-28T05:07:48.144Z,7.6
2018-12-28T05:08:48.161Z,7.69
2018-12-28T05:09:48.180Z,7.58
2018-12-28T05:10:48.196Z,7.72
2018-12-28T05:11:47.959Z,7.71
2018-12-28T05:12:48.226Z,7.55
2018-12-28T05:15:48.276Z,7.55
2018-12-28T05:16:48.288Z,7.6
2018-12-28T05:17:48.306Z,7.61
2018-12-28T05:18:48.346Z,7.61
2018-12-28T05:20:03.001Z,7.55
2018-12-28T05:20:48.358Z,7.64
2018-12-28T05:21:48.369Z,7.67
2018-12-28T05:22:48.387Z,7.61
2018-12-28T05:24:03.080Z,7.63
2018-12-28T05:24:48.420Z,7.68
2018-12-28T05:25:48.439Z,7.53
2018-12-28T05:26:48.455Z,7.68
2018-12-28T05:27:48.479Z,7.5
2018-12-28T05:28:48.483Z,7.67
2018-12-28T05:29:48.516Z,7.53
2018-12-28T05:30:48.523Z,7.6
2018-12-28T05:31:48.534Z,7.68
2018-12-28T05:32:48.547Z,7.6
2018-12-28T05:33:48.566Z,7.49
2018-12-28T05:34:48.580Z,7.67
2018-12-28T05:36:48.615Z,7.68
2018-12-28T05:37:48.639Z,7.63
2018-12-28T05:38:48.648Z,7.64
2018-12-28T05:39:48.666Z,7.58
2018-12-28T05:40:48.687Z,7.55
2018-12-28T05:41:48.697Z,7.63
2018-12-28T05:42:48.711Z,7.63
2018-12-28T05:43:48.725Z,7.69
2018-12-28T05:44:48.743Z,7.6
2018-12-28T05:45:48.758Z,7.64
2018-12-28T05:47:03.440Z,7.61
2018-12-28T05:47:48.791Z,7.63
2018-12-28T05:48:48.808Z,7.68
2018-12-28T05:49:48.847Z,7.68
2018-12-28T05:50:48.839Z,7.67
2018-12-28T05:52:03.522Z,7.61
2018-12-28T05:52:48.875Z,7.63
2018-12-28T05:53:48.888Z,7.67
2018-12-28T05:54:48.904Z,7.55
2018-12-28T05:55:48.920Z,7.55
2018-12-28T05:56:48.938Z,7.57
2018-12-28T05:57:48.956Z,7.57
2018-12-28T05:59:03.638Z,7.68
2018-12-28T05:59:48.986Z,7.55
2018-12-28T06:00:49.068Z,7.63
2018-12-28T06:02:49.038Z,7.58
2018-12-28T06:03:49.149Z,7.61
2018-12-28T06:04:49.069Z,7.68
2018-12-28T06:05:49.085Z,7.61
2018-12-28T06:06:49.099Z,7.63
2018-12-28T06:08:03.782Z,7.61
2018-12-28T06:08:49.135Z,7.61
2018-12-28T06:09:49.151Z,7.6
2018-12-28T06:10:49.162Z,7.68
2018-12-28T06:11:49.179Z,7.69
2018-12-28T06:12:49.196Z,7.67
2018-12-28T06:13:49.212Z,7.68
2018-12-28T06:14:49.229Z,7.74
2018-12-28T06:15:49.245Z,7.71
2018-12-28T06:17:49.285Z,7.68
2018-12-28T06:18:49.296Z,7.69
2018-12-28T06:20:03.973Z,7.63
2018-12-28T06:20:49.324Z,7.67
2018-12-28T06:21:49.342Z,7.68
2018-12-28T06:22:49.358Z,7.67
2018-12-28T06:24:04.036Z,7.79
2018-12-28T06:24:49.389Z,7.68
2018-12-28T06:25:49.407Z,7.6
2018-12-28T06:26:49.432Z,7.68
2018-12-28T06:27:49.440Z,7.71
2018-12-28T06:28:49.453Z,7.63
2018-12-28T06:29:49.572Z,7.72
2018-12-28T06:30:49.484Z,7.6
2018-12-28T06:31:49.502Z,7.64
2018-12-28T06:32:49.518Z,7.64
2018-12-28T06:33:49.540Z,7.79
2018-12-28T06:34:49.554Z,7.79
2018-12-28T06:35:49.568Z,7.77
2018-12-28T06:36:49.585Z,7.82
2018-12-28T06:37:49.604Z,7.79
2018-12-28T06:38:49.615Z,7.82
2018-12-28T06:40:04.304Z,7.79
2018-12-28T06:40:49.652Z,7.79
2018-12-28T06:41:49.771Z,7.8
2018-12-28T06:42:49.682Z,7.86
2018-12-28T06:43:49.698Z,7.85
2018-12-28T06:44:49.713Z,7.79
2018-12-28T06:45:49.726Z,7.85
2018-12-28T06:46:49.744Z,7.82
2018-12-28T06:47:49.771Z,7.68
2018-12-28T06:48:49.783Z,7.8
2018-12-28T06:50:49.810Z,7.86
2018-12-28T06:52:04.490Z,7.85
2018-12-28T06:53:04.506Z,7.89
2018-12-28T06:53:49.859Z,7.83
2018-12-28T06:55:04.546Z,7.8
2018-12-28T06:55:49.962Z,7.77
2018-12-28T06:56:49.908Z,7.71
2018-12-28T06:57:49.923Z,7.68
2018-12-28T06:58:49.947Z,7.8
2018-12-28T06:59:50.043Z,7.77
2018-12-28T07:00:49.974Z,7.79
2018-12-28T07:01:49.995Z,7.87
2018-12-28T07:02:50.011Z,7.8
2018-12-28T07:03:50.021Z,7.75
2018-12-28T07:04:50.039Z,7.85
2018-12-28T07:06:50.123Z,7.9
2018-12-28T07:07:50.087Z,7.93
2018-12-28T07:08:50.105Z,7.8
2018-12-28T07:09:50.119Z,7.82
2018-12-28T07:11:07.245Z,7.8
2018-12-28T07:11:50.161Z,7.8
2018-12-28T07:12:50.168Z,7.85
2018-12-28T07:13:50.194Z,7.85
2018-12-28T07:14:50.202Z,7.89
2018-12-28T07:15:50.219Z,7.89
2018-12-28T07:16:49.996Z,7.82
2018-12-28T07:17:50.251Z,7.85
2018-12-28T07:18:50.266Z,7.85
2018-12-28T07:19:50.287Z,7.85
2018-12-28T07:20:50.307Z,7.86
2018-12-28T07:21:50.316Z,7.83
2018-12-28T07:23:04.999Z,7.89
2018-12-28T07:23:50.350Z,7.8
2018-12-28T07:24:50.373Z,7.89
2018-12-28T07:25:50.378Z,7.87
2018-12-28T07:27:05.062Z,7.9
2018-12-28T07:27:50.413Z,7.9
2018-12-28T07:28:50.432Z,8.01
2018-12-28T07:29:50.447Z,8.04
2018-12-28T07:30:50.511Z,7.95
2018-12-28T07:31:50.479Z,8
2018-12-28T07:32:50.493Z,8.01
2018-12-28T07:33:51.102Z,8.07
2018-12-28T07:35:05.194Z,7.95
2018-12-28T07:35:50.306Z,7.95
2018-12-28T07:36:50.556Z,7.89
2018-12-28T07:38:50.593Z,7.92
2018-12-28T07:40:05.271Z,8
2018-12-28T07:40:57.184Z,7.98
2018-12-28T07:41:51.644Z,8.02
2018-12-28T07:43:05.319Z,8.04
2018-12-28T07:43:50.672Z,8.12
2018-12-28T07:44:50.699Z,8
2018-12-28T07:45:50.714Z,7.97
2018-12-28T07:46:50.723Z,7.89
2018-12-28T07:47:50.736Z,7.9
2018-12-28T07:48:50.769Z,7.93
2018-12-28T07:49:50.779Z,7.95
2018-12-28T07:51:50.810Z,8.02
2018-12-28T07:52:50.825Z,8.08
2018-12-28T07:53:50.592Z,8.07
2018-12-28T07:54:50.857Z,8.04
2018-12-28T07:55:50.869Z,8.05
2018-12-28T07:56:50.885Z,8.04
2018-12-28T07:57:50.901Z,8.05
2018-12-28T07:59:05.581Z,8
2018-12-28T07:59:50.934Z,8.11
2018-12-28T08:00:50.950Z,8.18
2018-12-28T08:01:50.966Z,8.26
2018-12-28T08:02:50.982Z,8.04
2018-12-28T08:03:51.002Z,8.05
2018-12-28T08:04:51.023Z,8.04
2018-12-28T08:06:51.115Z,8.05
2018-12-28T08:07:51.064Z,8.11
2018-12-28T08:08:51.082Z,8.07
2018-12-28T08:09:51.106Z,8.04
2018-12-28T08:10:51.133Z,8.1
2018-12-28T08:11:51.136Z,8.07
2018-12-28T08:12:51.147Z,8.08
2018-12-28T08:13:51.163Z,8
2018-12-28T08:15:05.893Z,8.04
2018-12-28T08:15:51.202Z,7.97
2018-12-28T08:16:51.214Z,8.04
2018-12-28T08:17:51.229Z,8.01
2018-12-28T08:18:51.252Z,7.97
2018-12-28T08:19:51.262Z,7.93
2018-12-28T08:20:51.278Z,8.01
2018-12-28T08:21:51.317Z,8
2018-12-28T08:23:51.328Z,8
2018-12-28T08:24:51.344Z,8.01
2018-12-28T08:25:51.360Z,8
2018-12-28T08:26:51.378Z,7.98
2018-12-28T08:27:51.395Z,8.05
2018-12-28T08:28:51.415Z,8.04
2018-12-28T08:30:06.090Z,8.04
2018-12-28T08:31:06.151Z,8.04
2018-12-28T08:31:51.464Z,8.15
2018-12-28T08:32:51.478Z,8.19
2018-12-28T08:33:51.494Z,8.2
2018-12-28T08:34:53.060Z,8.16
2018-12-28T08:35:51.527Z,8.02
2018-12-28T08:36:51.550Z,8.05
2018-12-28T08:37:51.559Z,8.11
2018-12-28T08:38:51.579Z,8.07
2018-12-28T08:40:51.609Z,8.15
2018-12-28T08:42:06.287Z,8.18
2018-12-28T08:42:51.705Z,8.23
2018-12-28T08:43:51.658Z,8.08
2018-12-28T08:44:51.679Z,8.19
2018-12-28T08:45:51.689Z,8.15
2018-12-28T08:46:51.705Z,8.2
2018-12-28T08:47:51.722Z,8.18
2018-12-28T08:48:51.737Z,8.18
2018-12-28T08:49:51.754Z,8.11
2018-12-28T08:50:51.776Z,8.25
2018-12-28T08:52:51.804Z,8.12
2018-12-28T08:53:51.823Z,8.19
2018-12-28T08:54:51.838Z,8.16
2018-12-28T08:55:51.854Z,8.19
2018-12-28T08:56:51.877Z,8.12
2018-12-28T08:57:51.887Z,8.05
2018-12-28T08:58:51.658Z,8.19
2018-12-28T08:59:51.922Z,8.16
2018-12-28T09:00:51.938Z,8.12
2018-12-28T09:02:06.617Z,8.19
2018-12-28T09:02:51.973Z,8.26
2018-12-28T09:03:51.985Z,8.19
2018-12-28T09:04:52.009Z,8.12
2018-12-28T09:05:52.020Z,8.12
2018-12-28T09:06:52.036Z,8.04
2018-12-28T09:07:52.057Z,8.22
2018-12-28T09:08:52.066Z,8.22
2018-12-28T09:09:52.083Z,8.23
2018-12-28T09:10:52.162Z,8.25
2018-12-28T09:12:52.132Z,8.08
2018-12-28T09:14:06.816Z,8.08
2018-12-28T09:15:06.828Z,8.01
2018-12-28T09:15:52.183Z,7.95
2018-12-28T09:16:52.206Z,8
2018-12-28T09:18:06.633Z,8.02
2018-12-28T09:18:52.238Z,8.07
2018-12-28T09:19:52.251Z,8.07
2018-12-28T09:20:52.263Z,8.1
2018-12-28T09:21:52.281Z,8.15
2018-12-28T09:23:06.969Z,8.2
2018-12-28T09:23:52.312Z,8.23
2018-12-28T09:24:52.329Z,8.08
2018-12-28T09:25:52.347Z,8.16
2018-12-28T09:26:52.365Z,8.15
2018-12-28T09:28:52.395Z,8.11
2018-12-28T09:29:52.429Z,8.18
2018-12-28T09:30:52.428Z,8.18
2018-12-28T09:31:52.448Z,8.23
2018-12-28T09:32:52.469Z,8.19
2018-12-28T09:34:07.142Z,8.36
2018-12-28T09:34:52.495Z,8.4
2018-12-28T09:35:53.161Z,8.41
2018-12-28T09:36:52.534Z,8.38
2018-12-28T09:37:52.604Z,8.34
2018-12-28T09:38:52.565Z,8.25
2018-12-28T09:39:52.577Z,8.34
2018-12-28T09:40:52.594Z,8.4
2018-12-28T09:41:52.625Z,8.23
2018-12-28T09:42:52.629Z,8.26
2018-12-28T09:43:52.645Z,8.34
2018-12-28T09:44:52.660Z,8.29
2018-12-28T09:46:07.340Z,8.41
2018-12-28T09:47:07.354Z,8.37
2018-12-28T09:48:52.725Z,8.4
2018-12-28T09:50:52.764Z,8.48
2018-12-28T09:51:52.776Z,8.56
2018-12-28T09:52:52.794Z,8.55
2018-12-28T09:53:52.808Z,8.65
2018-12-28T09:54:52.828Z,8.63
2018-12-28T09:55:52.839Z,8.61
2018-12-28T09:57:52.885Z,8.55
2018-12-28T09:58:52.896Z,8.58
2018-12-28T10:00:52.926Z,8.68
2018-12-28T10:01:58.420Z,8.7
2018-12-28T10:02:52.966Z,8.55
2018-12-28T10:03:52.976Z,8.62
2018-12-28T10:05:07.660Z,8.65
2018-12-28T10:05:53.012Z,8.65
2018-12-28T10:06:53.030Z,8.59
2018-12-28T10:07:53.044Z,8.65
2018-12-28T10:08:53.069Z,8.73
2018-12-28T10:09:53.081Z,8.63
2018-12-28T10:10:53.096Z,8.74
2018-12-28T10:11:53.112Z,8.77
2018-12-28T10:12:53.132Z,8.62
2018-12-28T10:14:53.173Z,8.65
2018-12-28T10:17:07.865Z,8.71
2018-12-28T10:17:53.213Z,8.73
2018-12-28T10:18:53.231Z,8.73
2018-12-28T10:19:53.009Z,8.58
2018-12-28T10:20:53.269Z,8.59
2018-12-28T10:21:53.281Z,8.55
2018-12-28T10:22:53.297Z,8.56
2018-12-28T10:23:53.315Z,8.65
2018-12-28T10:24:53.331Z,8.58
2018-12-28T10:25:53.355Z,8.71
2018-12-28T10:26:53.366Z,8.74
2018-12-28T10:27:53.386Z,8.77
2018-12-28T10:28:53.399Z,8.79
2018-12-28T10:29:53.417Z,8.68
2018-12-28T10:30:53.437Z,8.73
2018-12-28T10:31:53.453Z,8.7
2018-12-28T10:32:53.466Z,8.73
2018-12-28T10:34:08.147Z,8.76
2018-12-28T10:34:53.500Z,8.68
2018-12-28T10:35:53.516Z,8.68
2018-12-28T10:37:08.198Z,8.73
2018-12-28T10:37:53.549Z,8.68
2018-12-28T10:38:53.571Z,8.7
2018-12-28T10:39:53.587Z,8.65
2018-12-28T10:40:53.616Z,8.65
2018-12-28T10:41:53.618Z,8.56
2018-12-28T10:42:53.639Z,8.58
2018-12-28T10:43:53.651Z,8.53
2018-12-28T10:44:53.674Z,8.59
2018-12-28T10:45:53.689Z,8.65
2018-12-28T10:48:08.384Z,8.53
2018-12-28T10:50:08.416Z,8.65
2018-12-28T10:51:08.433Z,8.77
2018-12-28T10:51:53.789Z,8.68
2018-12-28T10:53:08.470Z,8.74
2018-12-28T10:53:53.821Z,8.7
2018-12-28T10:54:53.837Z,8.71
2018-12-28T10:55:53.854Z,8.76
2018-12-28T10:56:53.870Z,8.7
2018-12-28T10:57:53.890Z,8.74
2018-12-28T10:59:53.938Z,8.74
2018-12-28T11:01:53.959Z,8.68
2018-12-28T11:02:53.971Z,8.56
2018-12-28T11:03:53.991Z,8.66
2018-12-28T11:04:54.020Z,8.59
2018-12-28T11:05:54.027Z,8.76
2018-12-28T11:06:54.043Z,8.73
2018-12-28T11:07:54.058Z,8.77
2018-12-28T11:09:08.787Z,8.76
2018-12-28T11:09:54.094Z,8.7
2018-12-28T11:10:54.117Z,8.68
2018-12-28T11:11:54.126Z,8.68
2018-12-28T11:12:54.141Z,8.73
2018-12-28T11:14:54.176Z,8.71
2018-12-28T11:15:54.191Z,8.71
2018-12-28T11:16:54.213Z,8.62
2018-12-28T11:17:54.228Z,8.65
2018-12-28T11:18:54.243Z,8.68
2018-12-28T11:19:54.328Z,8.65
2018-12-28T11:21:08.940Z,8.7
2018-12-28T11:22:08.956Z,8.7
2018-12-28T11:22:54.311Z,8.61
2018-12-28T11:23:54.329Z,8.71
2018-12-28T11:25:09.007Z,8.7
2018-12-28T11:25:54.360Z,8.58
2018-12-28T11:26:54.380Z,8.62
2018-12-28T11:27:54.394Z,8.61
2018-12-28T11:28:54.411Z,8.63
2018-12-28T11:29:54.466Z,8.73
2018-12-28T11:30:54.456Z,8.65
2018-12-28T11:31:54.466Z,8.71
2018-12-28T11:32:54.479Z,8.66
2018-12-28T11:34:54.511Z,8.76
2018-12-28T11:36:54.557Z,8.83
2018-12-28T11:38:09.227Z,8.87
2018-12-28T11:38:54.582Z,8.87
2018-12-28T11:40:09.261Z,8.86
2018-12-28T11:40:54.618Z,8.92
2018-12-28T11:41:58.230Z,8.84
2018-12-28T11:42:54.654Z,8.86
2018-12-28T11:44:54.683Z,8.87
2018-12-28T11:45:59.746Z,8.86
2018-12-28T11:46:54.716Z,8.91
2018-12-28T11:47:54.739Z,8.94
2018-12-28T11:48:54.787Z,8.81
2018-12-28T11:49:54.775Z,8.89
2018-12-28T11:50:55.127Z,8.86
2018-12-28T11:51:54.803Z,8.92
2018-12-28T11:52:54.831Z,8.99
2018-12-28T11:53:54.838Z,8.98
2018-12-28T11:54:54.857Z,8.86
2018-12-28T11:55:54.869Z,8.87
2018-12-28T11:56:54.907Z,8.87
2018-12-28T11:57:54.905Z,8.91
2018-12-28T11:58:54.921Z,8.99
2018-12-28T11:59:54.936Z,9.02
2018-12-28T12:00:54.958Z,9.01
2018-12-28T12:01:54.974Z,9.13
2018-12-28T12:02:54.992Z,9.18
2018-12-28T12:03:55.009Z,9.08
2018-12-28T12:06:55.067Z,9.08
2018-12-28T12:07:55.174Z,9.18
2018-12-28T12:09:09.755Z,9.08
2018-12-28T12:10:09.851Z,9.02
2018-12-28T12:10:54.950Z,9.11
2018-12-28T12:12:09.807Z,9.08
2018-12-28T12:12:55.164Z,9.1
2018-12-28T12:13:55.179Z,8.94
2018-12-28T12:14:55.197Z,8.98
2018-12-28T12:15:55.210Z,8.95
2018-12-28T12:16:55.230Z,8.96
2018-12-28T12:17:55.247Z,8.95
2018-12-28T12:18:55.262Z,9.13
2018-12-28T12:19:55.283Z,9.02
2018-12-28T12:20:55.299Z,9.08
2018-12-28T12:21:55.312Z,8.98
2018-12-28T12:22:55.331Z,9.05
2018-12-28T12:23:55.359Z,9.02
2018-12-28T12:24:55.372Z,8.87
2018-12-28T12:25:55.136Z,8.99
2018-12-28T12:26:55.399Z,8.95
2018-12-28T12:28:10.151Z,8.96
2018-12-28T12:28:55.433Z,8.96
2018-12-28T12:29:55.451Z,8.95
2018-12-28T12:30:55.470Z,9.01
2018-12-28T12:31:55.494Z,8.99
2018-12-28T12:32:55.502Z,8.89
2018-12-28T12:33:55.522Z,8.84
2018-12-28T12:34:55.538Z,8.91
2018-12-28T12:35:55.310Z,8.89
2018-12-28T12:37:55.588Z,8.89
2018-12-28T12:38:55.608Z,8.86
2018-12-28T12:40:01.889Z,8.84
2018-12-28T12:41:10.302Z,8.91
2018-12-28T12:41:55.656Z,8.87
2018-12-28T12:42:55.673Z,8.89
2018-12-28T12:44:10.356Z,8.87
2018-12-28T12:45:55.725Z,8.95
2018-12-28T12:46:55.752Z,8.91
2018-12-28T12:47:55.515Z,8.84
2018-12-28T12:48:55.775Z,8.81
2018-12-28T12:49:55.793Z,8.98
2018-12-28T12:50:55.811Z,8.89
2018-12-28T12:51:57.022Z,8.84
2018-12-28T12:52:55.885Z,8.84
2018-12-28T12:53:55.866Z,8.89
2018-12-28T12:54:55.881Z,8.87
2018-12-28T12:55:55.896Z,8.84
2018-12-28T12:57:10.592Z,8.8
2018-12-28T12:57:55.930Z,8.89
2018-12-28T12:58:55.956Z,8.87
2018-12-28T13:00:10.628Z,8.92
2018-12-28T13:00:55.984Z,8.87
2018-12-28T13:01:56.010Z,8.94
2018-12-28T13:02:56.014Z,8.84
2018-12-28T13:03:56.079Z,8.84
2018-12-28T13:04:56.052Z,8.92
2018-12-28T13:05:56.066Z,8.96
2018-12-28T13:07:56.101Z,8.87
2018-12-28T13:08:56.126Z,9.01
2018-12-28T13:11:10.817Z,9.1
2018-12-28T13:12:14.652Z,8.98
2018-12-28T13:13:10.849Z,8.95
2018-12-28T13:13:57.262Z,8.95
2018-12-28T13:15:10.884Z,9.01
2018-12-28T13:15:56.243Z,8.94
2018-12-28T13:16:56.261Z,8.91
2018-12-28T13:17:56.272Z,8.91
2018-12-28T13:18:56.291Z,9.04
2018-12-28T13:19:57.331Z,9.04
2018-12-28T13:20:56.324Z,9.05
2018-12-28T13:21:56.341Z,8.95
2018-12-28T13:22:56.358Z,8.91
2018-12-28T13:23:56.475Z,8.99
2018-12-28T13:24:56.400Z,8.94
2018-12-28T13:25:56.414Z,8.95
2018-12-28T13:27:11.091Z,8.94
2018-12-28T13:27:56.443Z,8.95
2018-12-28T13:28:56.561Z,9.02
2018-12-28T13:29:56.479Z,8.92
2018-12-28T13:30:56.496Z,8.91
2018-12-28T13:31:56.520Z,8.87
2018-12-28T13:32:56.533Z,8.89
2018-12-28T13:33:56.597Z,8.96
2018-12-28T13:34:56.566Z,8.89
2018-12-28T13:35:56.582Z,8.89
2018-12-28T13:37:56.616Z,8.92
2018-12-28T13:38:56.630Z,8.98
2018-12-28T13:39:56.651Z,8.94
2018-12-28T13:40:56.677Z,8.96
2018-12-28T13:41:56.685Z,8.99
2018-12-28T13:42:56.700Z,8.84
2018-12-28T13:44:11.381Z,8.81
2018-12-28T13:44:56.740Z,8.98
2018-12-28T13:45:56.755Z,8.99
2018-12-28T13:47:11.435Z,8.96
2018-12-28T13:47:56.791Z,8.96
2018-12-28T13:48:56.853Z,8.96
2018-12-28T13:49:56.823Z,9.08
2018-12-28T13:50:56.839Z,9.02
2018-12-28T13:51:56.860Z,8.98
2018-12-28T13:52:56.876Z,8.95
2018-12-28T13:53:56.890Z,8.94
2018-12-28T13:54:56.910Z,8.99
2018-12-28T13:55:56.924Z,8.96
2018-12-28T13:57:56.956Z,9.01
2018-12-28T13:58:57.485Z,8.95
2018-12-28T13:59:56.994Z,8.92
2018-12-28T14:00:57.009Z,9.02
2018-12-28T14:01:57.025Z,8.87
2018-12-28T14:03:11.706Z,8.89
2018-12-28T14:03:57.065Z,8.98
2018-12-28T14:04:57.076Z,8.95
2018-12-28T14:05:57.092Z,8.94
2018-12-28T14:06:57.113Z,8.92
2018-12-28T14:07:57.127Z,8.94
2018-12-28T14:08:57.145Z,8.92
2018-12-28T14:09:57.170Z,8.91
2018-12-28T14:10:57.181Z,8.84
2018-12-28T14:11:57.206Z,8.91
2018-12-28T14:12:57.221Z,8.92
2018-12-28T14:13:57.229Z,8.94
2018-12-28T14:14:57.246Z,8.8
2018-12-28T14:16:11.927Z,8.87
2018-12-28T14:16:57.036Z,8.84
2018-12-28T14:17:57.305Z,8.91
2018-12-28T14:19:11.977Z,8.83